Fire Island Pines, New York
Current Conditions -  °F | °C
As of 1:56 AM on Saturday 29 Nov 2014 (Local Time) from KISP Reporting Station
Clear Clear  
Wind Chill: 23°   Ceiling: Unl
Heat Index: 23°   Visibility: 10mi
Dew Point: 14°   Wind: 3mph
Humidity: 68%   Direction: 250°WSW
Pressure: 30.28"   Gusts: NA
Location:  40.7472°N, 73.0832°W
Report Text: KISP 290656Z AUTO 25003KT 10SM CLR M05/M10 A3028 RMK AO2 SLP253 T10501100
Loading
Personal Weather Stations






























Interactive Weather Map New forecast layout! Learn more

10-Day Weather Forecast

Advertisements
Track Severe Weather on mobile